sensor_id;sensor_type;location;lat;lon;timestamp;temperature;humidity
25108;DHT22;13090;53.422;7.670;2023-09-07T00:02:37;22.40;73.30
25108;DHT22;13090;53.422;7.670;2023-09-07T00:08:01;22.30;73.60
25108;DHT22;13090;53.422;7.670;2023-09-07T00:13:22;22.20;73.10
25108;DHT22;13090;53.422;7.670;2023-09-07T00:18:44;22.20;73.30
25108;DHT22;13090;53.422;7.670;2023-09-07T00:24:06;22.10;73.50
25108;DHT22;13090;53.422;7.670;2023-09-07T00:29:27;22.10;73.70
25108;DHT22;13090;53.422;7.670;2023-09-07T00:34:49;22.10;73.60
25108;DHT22;13090;53.422;7.670;2023-09-07T00:40:10;22.00;73.70
25108;DHT22;13090;53.422;7.670;2023-09-07T00:45:31;22.00;73.30
25108;DHT22;13090;53.422;7.670;2023-09-07T00:50:53;22.00;73.20
25108;DHT22;13090;53.422;7.670;2023-09-07T00:56:14;22.00;73.50
25108;DHT22;13090;53.422;7.670;2023-09-07T01:01:35;22.00;73.60
25108;DHT22;13090;53.422;7.670;2023-09-07T01:07:03;21.90;74.00
25108;DHT22;13090;53.422;7.670;2023-09-07T01:12:28;21.80;74.90
25108;DHT22;13090;53.422;7.670;2023-09-07T01:17:49;21.70;74.20
25108;DHT22;13090;53.422;7.670;2023-09-07T01:23:12;21.70;74.20
25108;DHT22;13090;53.422;7.670;2023-09-07T01:28:34;21.70;74.70
25108;DHT22;13090;53.422;7.670;2023-09-07T01:33:55;21.60;74.80
25108;DHT22;13090;53.422;7.670;2023-09-07T01:39:17;21.50;75.50
25108;DHT22;13090;53.422;7.670;2023-09-07T01:44:37;21.40;77.20
25108;DHT22;13090;53.422;7.670;2023-09-07T01:49:58;21.30;76.40
25108;DHT22;13090;53.422;7.670;2023-09-07T01:55:20;21.30;77.10
25108;DHT22;13090;53.422;7.670;2023-09-07T02:00:41;21.30;76.60
25108;DHT22;13090;53.422;7.670;2023-09-07T02:06:02;21.20;76.30
25108;DHT22;13090;53.422;7.670;2023-09-07T02:11:24;21.20;77.40
25108;DHT22;13090;53.422;7.670;2023-09-07T02:16:45;21.10;77.80
25108;DHT22;13090;53.422;7.670;2023-09-07T02:22:06;21.00;78.10
25108;DHT22;13090;53.422;7.670;2023-09-07T02:27:28;21.00;78.40
25108;DHT22;13090;53.422;7.670;2023-09-07T02:32:49;20.90;78.90
25108;DHT22;13090;53.422;7.670;2023-09-07T02:38:10;20.90;78.90
25108;DHT22;13090;53.422;7.670;2023-09-07T02:43:32;20.80;79.10
25108;DHT22;13090;53.422;7.670;2023-09-07T02:48:53;20.80;79.30
25108;DHT22;13090;53.422;7.670;2023-09-07T02:54:14;20.70;79.00
25108;DHT22;13090;53.422;7.670;2023-09-07T02:59:36;20.60;79.30
25108;DHT22;13090;53.422;7.670;2023-09-07T03:04:56;20.60;78.80
25108;DHT22;13090;53.422;7.670;2023-09-07T03:10:17;20.50;78.70
25108;DHT22;13090;53.422;7.670;2023-09-07T03:15:39;20.50;79.40
25108;DHT22;13090;53.422;7.670;2023-09-07T03:21:02;20.40;79.60
25108;DHT22;13090;53.422;7.670;2023-09-07T03:26:23;20.40;79.10
25108;DHT22;13090;53.422;7.670;2023-09-07T03:31:45;20.40;78.90
25108;DHT22;13090;53.422;7.670;2023-09-07T03:37:06;20.40;78.60
25108;DHT22;13090;53.422;7.670;2023-09-07T03:42:27;20.40;78.40
25108;DHT22;13090;53.422;7.670;2023-09-07T03:47:49;20.40;78.20
25108;DHT22;13090;53.422;7.670;2023-09-07T03:53:10;20.30;78.00
25108;DHT22;13090;53.422;7.670;2023-09-07T03:58:31;20.30;78.00
25108;DHT22;13090;53.422;7.670;2023-09-07T04:03:54;20.30;78.10
25108;DHT22;13090;53.422;7.670;2023-09-07T04:09:15;20.20;78.40
25108;DHT22;13090;53.422;7.670;2023-09-07T04:14:36;20.10;78.50
25108;DHT22;13090;53.422;7.670;2023-09-07T04:19:59;20.00;79.00
25108;DHT22;13090;53.422;7.670;2023-09-07T04:25:20;19.90;79.50
25108;DHT22;13090;53.422;7.670;2023-09-07T04:30:41;19.80;79.20
25108;DHT22;13090;53.422;7.670;2023-09-07T04:36:12;19.80;79.20
25108;DHT22;13090;53.422;7.670;2023-09-07T04:41:32;19.80;80.00
25108;DHT22;13090;53.422;7.670;2023-09-07T04:46:55;19.70;79.30
25108;DHT22;13090;53.422;7.670;2023-09-07T04:52:17;19.70;79.60
25108;DHT22;13090;53.422;7.670;2023-09-07T04:57:38;19.60;79.60
25108;DHT22;13090;53.422;7.670;2023-09-07T05:02:59;19.60;79.50
25108;DHT22;13090;53.422;7.670;2023-09-07T05:08:21;19.60;79.50
25108;DHT22;13090;53.422;7.670;2023-09-07T05:13:42;19.60;79.80
25108;DHT22;13090;53.422;7.670;2023-09-07T05:19:03;19.60;80.40
25108;DHT22;13090;53.422;7.670;2023-09-07T05:24:25;19.60;80.60
25108;DHT22;13090;53.422;7.670;2023-09-07T05:29:45;19.60;81.00
25108;DHT22;13090;53.422;7.670;2023-09-07T05:35:07;19.80;81.60
25108;DHT22;13090;53.422;7.670;2023-09-07T05:40:29;20.30;81.40
25108;DHT22;13090;53.422;7.670;2023-09-07T05:45:50;20.80;81.30
25108;DHT22;13090;53.422;7.670;2023-09-07T05:51:11;21.60;81.80
25108;DHT22;13090;53.422;7.670;2023-09-07T05:56:34;22.50;79.60
25108;DHT22;13090;53.422;7.670;2023-09-07T06:01:54;23.50;78.10
25108;DHT22;13090;53.422;7.670;2023-09-07T06:07:15;24.40;77.10
25108;DHT22;13090;53.422;7.670;2023-09-07T06:12:38;25.30;75.20
25108;DHT22;13090;53.422;7.670;2023-09-07T06:17:58;26.10;73.50
25108;DHT22;13090;53.422;7.670;2023-09-07T06:23:19;26.80;71.30
25108;DHT22;13090;53.422;7.670;2023-09-07T06:28:41;27.30;69.20
25108;DHT22;13090;53.422;7.670;2023-09-07T06:34:02;27.70;67.90
25108;DHT22;13090;53.422;7.670;2023-09-07T06:39:23;28.20;64.60
25108;DHT22;13090;53.422;7.670;2023-09-07T06:44:45;28.40;65.40
25108;DHT22;13090;53.422;7.670;2023-09-07T06:50:06;28.80;64.40
25108;DHT22;13090;53.422;7.670;2023-09-07T06:55:27;29.20;63.60
25108;DHT22;13090;53.422;7.670;2023-09-07T07:00:49;29.40;62.60
25108;DHT22;13090;53.422;7.670;2023-09-07T07:06:11;29.70;61.00
25108;DHT22;13090;53.422;7.670;2023-09-07T07:11:32;30.00;60.70
25108;DHT22;13090;53.422;7.670;2023-09-07T07:16:54;30.20;59.90
25108;DHT22;13090;53.422;7.670;2023-09-07T07:22:15;30.50;58.10
25108;DHT22;13090;53.422;7.670;2023-09-07T07:27:39;30.70;56.30
25108;DHT22;13090;53.422;7.670;2023-09-07T07:33:02;30.90;56.20
25108;DHT22;13090;53.422;7.670;2023-09-07T07:38:23;31.00;56.20
25108;DHT22;13090;53.422;7.670;2023-09-07T07:43:44;31.30;55.40
25108;DHT22;13090;53.422;7.670;2023-09-07T07:49:06;31.10;52.20
25108;DHT22;13090;53.422;7.670;2023-09-07T07:54:27;30.90;51.90
25108;DHT22;13090;53.422;7.670;2023-09-07T07:59:48;30.70;51.70
25108;DHT22;13090;53.422;7.670;2023-09-07T08:05:10;30.50;51.10
25108;DHT22;13090;53.422;7.670;2023-09-07T08:10:33;30.50;51.10
25108;DHT22;13090;53.422;7.670;2023-09-07T08:15:54;30.30;51.30
25108;DHT22;13090;53.422;7.670;2023-09-07T08:21:16;30.20;52.10
25108;DHT22;13090;53.422;7.670;2023-09-07T08:26:37;30.40;52.20
25108;DHT22;13090;53.422;7.670;2023-09-07T08:32:00;30.60;50.60
25108;DHT22;13090;53.422;7.670;2023-09-07T08:37:23;30.70;49.90
25108;DHT22;13090;53.422;7.670;2023-09-07T08:42:45;30.60;50.10
25108;DHT22;13090;53.422;7.670;2023-09-07T08:48:07;30.60;50.40
25108;DHT22;13090;53.422;7.670;2023-09-07T08:53:31;30.70;50.20
25108;DHT22;13090;53.422;7.670;2023-09-07T08:58:53;30.70;49.30
25108;DHT22;13090;53.422;7.670;2023-09-07T09:04:14;30.80;50.10
25108;DHT22;13090;53.422;7.670;2023-09-07T09:09:37;30.70;49.30
25108;DHT22;13090;53.422;7.670;2023-09-07T09:14:59;30.70;50.00
25108;DHT22;13090;53.422;7.670;2023-09-07T09:20:21;30.60;50.30
25108;DHT22;13090;53.422;7.670;2023-09-07T09:25:43;30.60;51.70
25108;DHT22;13090;53.422;7.670;2023-09-07T09:31:04;30.70;50.70
25108;DHT22;13090;53.422;7.670;2023-09-07T09:36:33;30.90;50.40
25108;DHT22;13090;53.422;7.670;2023-09-07T09:41:56;31.10;50.50
25108;DHT22;13090;53.422;7.670;2023-09-07T09:47:18;31.30;49.60
25108;DHT22;13090;53.422;7.670;2023-09-07T09:52:39;31.40;49.60
25108;DHT22;13090;53.422;7.670;2023-09-07T09:58:01;31.60;50.00
25108;DHT22;13090;53.422;7.670;2023-09-07T10:03:25;31.70;49.80
25108;DHT22;13090;53.422;7.670;2023-09-07T10:08:55;31.70;48.70
25108;DHT22;13090;53.422;7.670;2023-09-07T10:14:17;31.60;48.30
25108;DHT22;13090;53.422;7.670;2023-09-07T10:19:38;31.30;48.90
25108;DHT22;13090;53.422;7.670;2023-09-07T10:24:59;31.20;48.90
25108;DHT22;13090;53.422;7.670;2023-09-07T10:30:22;31.00;49.60
25108;DHT22;13090;53.422;7.670;2023-09-07T10:35:43;31.00;49.60
25108;DHT22;13090;53.422;7.670;2023-09-07T10:41:04;31.10;49.20
25108;DHT22;13090;53.422;7.670;2023-09-07T10:46:27;31.20;49.70
25108;DHT22;13090;53.422;7.670;2023-09-07T10:51:48;31.20;49.10
25108;DHT22;13090;53.422;7.670;2023-09-07T10:57:10;31.20;49.10
25108;DHT22;13090;53.422;7.670;2023-09-07T11:02:32;31.20;48.80
25108;DHT22;13090;53.422;7.670;2023-09-07T11:07:53;31.30;48.80
25108;DHT22;13090;53.422;7.670;2023-09-07T11:13:15;31.30;48.50
25108;DHT22;13090;53.422;7.670;2023-09-07T11:18:38;31.50;48.20
25108;DHT22;13090;53.422;7.670;2023-09-07T11:24:00;31.50;48.20
25108;DHT22;13090;53.422;7.670;2023-09-07T11:29:22;31.40;48.10
25108;DHT22;13090;53.422;7.670;2023-09-07T11:34:52;31.20;48.20
25108;DHT22;13090;53.422;7.670;2023-09-07T11:40:17;31.30;48.10
25108;DHT22;13090;53.422;7.670;2023-09-07T11:45:38;31.30;48.90
25108;DHT22;13090;53.422;7.670;2023-09-07T11:51:02;31.40;48.20
25108;DHT22;13090;53.422;7.670;2023-09-07T11:56:22;31.50;48.50
25108;DHT22;13090;53.422;7.670;2023-09-07T12:01:43;31.60;48.80
25108;DHT22;13090;53.422;7.670;2023-09-07T12:07:05;31.50;48.50
25108;DHT22;13090;53.422;7.670;2023-09-07T12:12:26;31.40;47.60
25108;DHT22;13090;53.422;7.670;2023-09-07T12:17:47;31.30;48.50
25108;DHT22;13090;53.422;7.670;2023-09-07T12:23:09;31.40;48.50
25108;DHT22;13090;53.422;7.670;2023-09-07T12:28:30;31.40;49.10
25108;DHT22;13090;53.422;7.670;2023-09-07T12:33:51;31.30;48.30
25108;DHT22;13090;53.422;7.670;2023-09-07T12:39:14;31.20;48.50
25108;DHT22;13090;53.422;7.670;2023-09-07T12:44:34;31.20;49.90
25108;DHT22;13090;53.422;7.670;2023-09-07T12:49:55;31.10;48.40
25108;DHT22;13090;53.422;7.670;2023-09-07T12:55:17;30.90;48.50
25108;DHT22;13090;53.422;7.670;2023-09-07T13:00:38;30.80;49.00
25108;DHT22;13090;53.422;7.670;2023-09-07T13:05:59;30.70;49.60
25108;DHT22;13090;53.422;7.670;2023-09-07T13:11:21;30.60;50.90
25108;DHT22;13090;53.422;7.670;2023-09-07T13:16:42;30.60;50.40
25108;DHT22;13090;53.422;7.670;2023-09-07T13:22:03;30.50;50.70
25108;DHT22;13090;53.422;7.670;2023-09-07T13:27:25;30.40;50.90
25108;DHT22;13090;53.422;7.670;2023-09-07T13:32:46;30.30;50.90
25108;DHT22;13090;53.422;7.670;2023-09-07T13:38:07;30.30;51.60
25108;DHT22;13090;53.422;7.670;2023-09-07T13:43:29;30.30;51.20
25108;DHT22;13090;53.422;7.670;2023-09-07T13:48:51;30.20;51.40
25108;DHT22;13090;53.422;7.670;2023-09-07T13:54:11;30.30;51.20
25108;DHT22;13090;53.422;7.670;2023-09-07T13:59:34;30.30;50.80
25108;DHT22;13090;53.422;7.670;2023-09-07T14:04:55;30.30;50.90
25108;DHT22;13090;53.422;7.670;2023-09-07T14:10:16;30.20;49.60
25108;DHT22;13090;53.422;7.670;2023-09-07T14:15:38;30.20;49.30
25108;DHT22;13090;53.422;7.670;2023-09-07T14:20:59;30.10;49.50
25108;DHT22;13090;53.422;7.670;2023-09-07T14:26:20;30.10;50.40
25108;DHT22;13090;53.422;7.670;2023-09-07T14:31:42;30.10;49.10
25108;DHT22;13090;53.422;7.670;2023-09-07T14:37:03;30.10;48.70
25108;DHT22;13090;53.422;7.670;2023-09-07T14:42:24;30.00;49.50
25108;DHT22;13090;53.422;7.670;2023-09-07T14:47:46;30.00;48.70
25108;DHT22;13090;53.422;7.670;2023-09-07T14:53:09;29.90;49.30
25108;DHT22;13090;53.422;7.670;2023-09-07T14:58:30;29.90;49.40
25108;DHT22;13090;53.422;7.670;2023-09-07T15:03:53;29.90;49.70
25108;DHT22;13090;53.422;7.670;2023-09-07T15:09:14;29.80;48.70
25108;DHT22;13090;53.422;7.670;2023-09-07T15:14:35;29.80;48.70
25108;DHT22;13090;53.422;7.670;2023-09-07T15:19:58;29.80;50.10
25108;DHT22;13090;53.422;7.670;2023-09-07T15:25:19;29.80;49.80
25108;DHT22;13090;53.422;7.670;2023-09-07T15:30:43;29.70;49.00
25108;DHT22;13090;53.422;7.670;2023-09-07T15:36:05;29.60;48.50
25108;DHT22;13090;53.422;7.670;2023-09-07T15:41:26;29.60;49.00
25108;DHT22;13090;53.422;7.670;2023-09-07T15:46:47;29.60;49.40
25108;DHT22;13090;53.422;7.670;2023-09-07T15:52:10;29.60;49.30
25108;DHT22;13090;53.422;7.670;2023-09-07T15:57:31;29.60;50.60
25108;DHT22;13090;53.422;7.670;2023-09-07T16:02:52;29.60;50.50
25108;DHT22;13090;53.422;7.670;2023-09-07T16:08:14;29.50;49.50
25108;DHT22;13090;53.422;7.670;2023-09-07T16:13:35;29.50;49.10
25108;DHT22;13090;53.422;7.670;2023-09-07T16:18:56;29.40;50.50
25108;DHT22;13090;53.422;7.670;2023-09-07T16:24:18;29.40;50.90
25108;DHT22;13090;53.422;7.670;2023-09-07T16:29:39;29.40;51.10
25108;DHT22;13090;53.422;7.670;2023-09-07T16:35:00;29.30;51.30
25108;DHT22;13090;53.422;7.670;2023-09-07T16:40:22;29.20;50.90
25108;DHT22;13090;53.422;7.670;2023-09-07T16:45:43;29.10;51.10
25108;DHT22;13090;53.422;7.670;2023-09-07T16:51:05;29.00;51.40
25108;DHT22;13090;53.422;7.670;2023-09-07T16:56:27;28.90;51.40
25108;DHT22;13090;53.422;7.670;2023-09-07T17:01:48;28.90;52.00
25108;DHT22;13090;53.422;7.670;2023-09-07T17:07:09;28.70;52.00
25108;DHT22;13090;53.422;7.670;2023-09-07T17:12:32;28.60;52.50
25108;DHT22;13090;53.422;7.670;2023-09-07T17:17:53;28.50;53.10
25108;DHT22;13090;53.422;7.670;2023-09-07T17:23:14;28.40;53.40
25108;DHT22;13090;53.422;7.670;2023-09-07T17:28:37;28.30;53.80
25108;DHT22;13090;53.422;7.670;2023-09-07T17:33:58;28.10;54.40
25108;DHT22;13090;53.422;7.670;2023-09-07T17:39:18;27.90;54.60
25108;DHT22;13090;53.422;7.670;2023-09-07T17:44:41;27.80;54.70
25108;DHT22;13090;53.422;7.670;2023-09-07T17:50:01;27.70;55.40
25108;DHT22;13090;53.422;7.670;2023-09-07T17:55:22;27.50;56.00
25108;DHT22;13090;53.422;7.670;2023-09-07T18:00:45;27.30;56.30
25108;DHT22;13090;53.422;7.670;2023-09-07T18:06:06;27.10;56.80
25108;DHT22;13090;53.422;7.670;2023-09-07T18:11:27;26.90;57.60
25108;DHT22;13090;53.422;7.670;2023-09-07T18:16:49;26.70;58.00
25108;DHT22;13090;53.422;7.670;2023-09-07T18:22:10;26.50;58.10
25108;DHT22;13090;53.422;7.670;2023-09-07T18:27:31;26.40;58.00
25108;DHT22;13090;53.422;7.670;2023-09-07T18:32:54;26.30;57.80
25108;DHT22;13090;53.422;7.670;2023-09-07T18:38:14;26.20;57.90
25108;DHT22;13090;53.422;7.670;2023-09-07T18:43:36;26.10;57.80
25108;DHT22;13090;53.422;7.670;2023-09-07T18:48:59;26.00;58.20
25108;DHT22;13090;53.422;7.670;2023-09-07T18:54:20;25.90;58.70
25108;DHT22;13090;53.422;7.670;2023-09-07T18:59:41;25.70;59.30
25108;DHT22;13090;53.422;7.670;2023-09-07T19:05:03;25.50;61.00
25108;DHT22;13090;53.422;7.670;2023-09-07T19:10:25;25.40;62.20
25108;DHT22;13090;53.422;7.670;2023-09-07T19:15:46;25.20;63.30
25108;DHT22;13090;53.422;7.670;2023-09-07T19:21:08;25.00;64.20
25108;DHT22;13090;53.422;7.670;2023-09-07T19:26:44;24.90;63.50
25108;DHT22;13090;53.422;7.670;2023-09-07T19:32:06;24.80;64.20
25108;DHT22;13090;53.422;7.670;2023-09-07T19:37:28;24.70;65.00
25108;DHT22;13090;53.422;7.670;2023-09-07T19:42:49;24.70;64.50
25108;DHT22;13090;53.422;7.670;2023-09-07T19:48:10;24.60;64.20
25108;DHT22;13090;53.422;7.670;2023-09-07T19:53:32;24.50;66.00
25108;DHT22;13090;53.422;7.670;2023-09-07T19:58:53;24.30;66.70
25108;DHT22;13090;53.422;7.670;2023-09-07T20:04:14;24.20;67.80
25108;DHT22;13090;53.422;7.670;2023-09-07T20:09:37;24.10;68.70
25108;DHT22;13090;53.422;7.670;2023-09-07T20:14:58;24.00;69.30
25108;DHT22;13090;53.422;7.670;2023-09-07T20:20:19;23.90;69.40
25108;DHT22;13090;53.422;7.670;2023-09-07T20:25:41;23.80;69.80
25108;DHT22;13090;53.422;7.670;2023-09-07T20:31:02;23.80;70.10
25108;DHT22;13090;53.422;7.670;2023-09-07T20:36:23;23.70;70.00
25108;DHT22;13090;53.422;7.670;2023-09-07T20:41:46;23.60;70.30
25108;DHT22;13090;53.422;7.670;2023-09-07T20:47:07;23.60;70.10
25108;DHT22;13090;53.422;7.670;2023-09-07T20:52:28;23.50;69.80
25108;DHT22;13090;53.422;7.670;2023-09-07T20:57:50;23.50;70.00
25108;DHT22;13090;53.422;7.670;2023-09-07T21:03:11;23.50;69.60
25108;DHT22;13090;53.422;7.670;2023-09-07T21:08:32;23.50;69.30
25108;DHT22;13090;53.422;7.670;2023-09-07T21:13:55;23.40;68.90
25108;DHT22;13090;53.422;7.670;2023-09-07T21:19:15;23.40;68.60
25108;DHT22;13090;53.422;7.670;2023-09-07T21:24:36;23.40;68.20
25108;DHT22;13090;53.422;7.670;2023-09-07T21:29:59;23.30;67.50
25108;DHT22;13090;53.422;7.670;2023-09-07T21:35:20;23.20;67.10
25108;DHT22;13090;53.422;7.670;2023-09-07T21:40:41;23.20;67.20
25108;DHT22;13090;53.422;7.670;2023-09-07T21:46:03;23.10;67.10
25108;DHT22;13090;53.422;7.670;2023-09-07T21:51:24;23.00;67.70
25108;DHT22;13090;53.422;7.670;2023-09-07T21:56:46;22.90;67.70
25108;DHT22;13090;53.422;7.670;2023-09-07T22:02:08;22.80;68.50
25108;DHT22;13090;53.422;7.670;2023-09-07T22:07:29;22.60;68.90
25108;DHT22;13090;53.422;7.670;2023-09-07T22:12:50;22.50;68.80
25108;DHT22;13090;53.422;7.670;2023-09-07T22:18:12;22.40;69.00
25108;DHT22;13090;53.422;7.670;2023-09-07T22:23:33;22.30;70.60
25108;DHT22;13090;53.422;7.670;2023-09-07T22:29:03;22.20;71.50
25108;DHT22;13090;53.422;7.670;2023-09-07T22:34:26;22.20;71.90
25108;DHT22;13090;53.422;7.670;2023-09-07T22:39:48;22.10;72.20
25108;DHT22;13090;53.422;7.670;2023-09-07T22:45:09;22.10;72.10
25108;DHT22;13090;53.422;7.670;2023-09-07T22:50:31;22.10;72.00
25108;DHT22;13090;53.422;7.670;2023-09-07T22:55:52;22.10;71.90
25108;DHT22;13090;53.422;7.670;2023-09-07T23:01:13;22.10;71.70
25108;DHT22;13090;53.422;7.670;2023-09-07T23:06:35;22.20;71.40
25108;DHT22;13090;53.422;7.670;2023-09-07T23:11:56;22.20;71.10
25108;DHT22;13090;53.422;7.670;2023-09-07T23:17:17;22.20;71.10
25108;DHT22;13090;53.422;7.670;2023-09-07T23:22:40;22.20;70.70
25108;DHT22;13090;53.422;7.670;2023-09-07T23:28:01;22.20;70.60
25108;DHT22;13090;53.422;7.670;2023-09-07T23:33:22;22.20;70.00
25108;DHT22;13090;53.422;7.670;2023-09-07T23:38:44;22.20;70.00
25108;DHT22;13090;53.422;7.670;2023-09-07T23:44:05;22.20;69.80
25108;DHT22;13090;53.422;7.670;2023-09-07T23:49:26;22.10;70.00
25108;DHT22;13090;53.422;7.670;2023-09-07T23:54:49;22.10;70.10
